Time;durP1;ratioP1;P1;durP2;ratioP2;P2;SDS_P1;SDS_P2;PMS_P1;PMS_P2;Temp;Humidity;BMP_temperature;BMP_pressure;BME280_temperature;BME280_humidity;BME280_pressure;Samples;Min_cycle;Max_cycle;Signal;HPM_P1;HPM_P2
2021/05/05 00:01:01;;;;;;;2.47;2.27;;;;;;;;;;5051612;28;20883;-58
2021/05/05 00:03:27;;;;;;;2.60;2.50;;;;;;;;;;5051686;28;20457;-58
2021/05/05 00:05:54;;;;;;;4.90;2.70;;;;;;;;;;5051496;28;20460;-59
2021/05/05 00:08:21;;;;;;;5.00;3.03;;;;;;;;;;5052249;28;20401;-58
2021/05/05 00:10:47;;;;;;;3.03;2.73;;;;;;;;;;5051352;28;20906;-59
2021/05/05 00:13:13;;;;;;;8.80;3.10;;;;;;;;;;5051716;28;20415;-59
2021/05/05 00:15:39;;;;;;;3.80;2.60;;;;;;;;;;5051303;28;20422;-58
2021/05/05 00:18:05;;;;;;;3.03;2.83;;;;;;;;;;5051553;28;20408;-59
2021/05/05 00:20:31;;;;;;;4.80;2.87;;;;;;;;;;5051109;28;20421;-59
2021/05/05 00:22:57;;;;;;;4.10;3.03;;;;;;;;;;5051382;28;20887;-59
2021/05/05 00:25:23;;;;;;;7.10;2.80;;;;;;;;;;5051201;28;20462;-59
2021/05/05 00:27:50;;;;;;;3.80;3.03;;;;;;;;;;5051236;28;20394;-59
2021/05/05 00:30:20;;;;;;;3.20;2.42;;;;;;;;;;5051473;28;20761;-59
2021/05/05 00:32:46;;;;;;;2.97;2.77;;;;;;;;;;5051243;28;20241;-59
2021/05/05 00:35:13;;;;;;;4.60;2.73;;;;;;;;;;5050990;28;20420;-59
2021/05/05 00:37:39;;;;;;;2.60;2.40;;;;;;;;;;5050975;28;20912;-60
2021/05/05 00:40:06;;;;;;;3.10;2.90;;;;;;;;;;5050800;28;20164;-60
2021/05/05 00:42:32;;;;;;;3.67;3.00;;;;;;;;;;5050995;28;20413;-59
2021/05/05 00:44:59;;;;;;;5.00;2.83;;;;;;;;;;5066348;28;20541;-59
2021/05/05 00:47:25;;;;;;;2.43;2.27;;;;;;;;;;5050877;28;20567;-60
2021/05/05 00:49:52;;;;;;;3.13;2.13;;;;;;;;;;5050661;28;20412;-59
2021/05/05 00:52:18;;;;;;;2.97;1.70;;;;;;;;;;5050863;28;20485;-59
2021/05/05 00:54:44;;;;;;;6.20;2.30;;;;;;;;;;5050829;28;20897;-59
2021/05/05 00:57:10;;;;;;;4.00;2.27;;;;;;;;;;5050720;28;20789;-59
2021/05/05 00:59:36;;;;;;;3.53;1.87;;;;;;;;;;5050625;28;20402;-59
2021/05/05 01:02:02;;;;;;;7.83;2.20;;;;;;;;;;5050043;28;20405;-59
2021/05/05 01:04:28;;;;;;;5.53;2.47;;;;;;;;;;5050089;28;20432;-59
2021/05/05 01:06:54;;;;;;;2.87;1.90;;;;;;;;;;5050834;28;20496;-59
2021/05/05 01:09:20;;;;;;;2.73;2.30;;;;;;;;;;5050930;28;20394;-60
2021/05/05 01:11:46;;;;;;;3.15;2.78;;;;;;;;;;5050747;28;20397;-60
2021/05/05 01:14:12;;;;;;;8.57;2.43;;;;;;;;;;5050450;28;20756;-60
2021/05/05 01:16:38;;;;;;;2.90;2.30;;;;;;;;;;5050636;28;20400;-59
2021/05/05 01:19:05;;;;;;;3.23;2.20;;;;;;;;;;5050136;28;20405;-60
2021/05/05 01:21:31;;;;;;;2.20;2.10;;;;;;;;;;5050825;28;20548;-59
2021/05/05 01:23:57;;;;;;;4.45;2.90;;;;;;;;;;5065800;28;20439;-59
2021/05/05 01:26:23;;;;;;;3.20;2.50;;;;;;;;;;5050475;28;20187;-59
2021/05/05 01:28:49;;;;;;;3.10;2.73;;;;;;;;;;5050167;28;20409;-59
2021/05/05 01:31:15;;;;;;;3.83;2.70;;;;;;;;;;5051022;28;20407;-60
2021/05/05 01:33:42;;;;;;;2.90;2.70;;;;;;;;;;5065658;28;20426;-59
2021/05/05 01:36:09;;;;;;;2.60;2.40;;;;;;;;;;5050532;28;20407;-59
2021/05/05 01:38:35;;;;;;;4.40;3.50;;;;;;;;;;5050242;28;20168;-60
2021/05/05 01:41:01;;;;;;;5.93;2.80;;;;;;;;;;5050264;28;20885;-59
2021/05/05 01:43:27;;;;;;;3.50;3.15;;;;;;;;;;5050256;28;20403;-59
2021/05/05 01:45:53;;;;;;;3.17;2.70;;;;;;;;;;5084236;22;20326;-52
2021/05/05 01:48:20;;;;;;;3.80;3.50;;;;;;;;;;5050372;28;20940;-52
2021/05/05 01:50:46;;;;;;;3.50;3.30;;;;;;;;;;5049802;28;20393;-52
2021/05/05 01:53:14;;;;;;;3.40;3.10;;;;;;;;;;5053217;28;20167;-52
2021/05/05 01:55:40;;;;;;;3.93;3.40;;;;;;;;;;5052907;28;20187;-52
2021/05/05 01:58:06;;;;;;;5.10;3.00;;;;;;;;;;5054435;28;20946;-53
2021/05/05 02:00:32;;;;;;;2.73;2.50;;;;;;;;;;5053842;28;20841;-53
2021/05/05 02:02:59;;;;;;;3.15;2.90;;;;;;;;;;5054077;28;20394;-52
2021/05/05 02:05:25;;;;;;;4.75;2.85;;;;;;;;;;5053882;28;20214;-53
2021/05/05 02:07:51;;;;;;;2.58;2.42;;;;;;;;;;5054151;28;20174;-53
2021/05/05 02:10:18;;;;;;;5.13;3.42;;;;;;;;;;5053741;28;20250;-54
2021/05/05 02:12:44;;;;;;;5.17;2.70;;;;;;;;;;5053952;28;20167;-50
2021/05/05 02:15:11;;;;;;;3.23;2.93;;;;;;;;;;5053636;28;20432;-50
2021/05/05 02:17:37;;;;;;;5.28;3.08;;;;;;;;;;5053829;28;20406;-54
2021/05/05 02:20:14;;;;;;;5.87;2.87;;;;;;;;;;5053407;28;20650;-52
2021/05/05 02:22:40;;;;;;;3.50;3.20;;;;;;;;;;5053817;28;20435;-52
2021/05/05 02:25:07;;;;;;;4.00;3.40;;;;;;;;;;5053400;28;20269;-52
2021/05/05 02:27:33;;;;;;;5.38;3.45;;;;;;;;;;5053573;28;20540;-52
2021/05/05 02:29:59;;;;;;;4.72;3.88;;;;;;;;;;5053174;28;20175;-52
2021/05/05 02:32:26;;;;;;;5.13;4.23;;;;;;;;;;5053506;28;20246;-52
2021/05/05 02:34:56;;;;;;;4.30;4.00;;;;;;;;;;5053389;28;20418;-52
2021/05/05 02:37:23;;;;;;;5.00;4.50;;;;;;;;;;5053554;28;20198;-52
2021/05/05 02:39:50;;;;;;;5.88;4.70;;;;;;;;;;5053210;28;20186;-53
2021/05/05 02:42:19;;;;;;;4.90;4.50;;;;;;;;;;5053242;28;20171;-53
2021/05/05 02:44:48;;;;;;;4.88;4.47;;;;;;;;;;5053288;28;20217;-51
2021/05/05 02:47:14;;;;;;;4.97;4.47;;;;;;;;;;5053091;28;20209;-52
2021/05/05 02:49:40;;;;;;;5.13;4.15;;;;;;;;;;5052936;28;20194;-51
2021/05/05 02:52:06;;;;;;;4.53;4.13;;;;;;;;;;5053112;28;20170;-52
2021/05/05 02:54:33;;;;;;;4.07;3.77;;;;;;;;;;5053064;28;20244;-52
2021/05/05 02:56:59;;;;;;;6.43;4.10;;;;;;;;;;5052789;28;20484;-53
2021/05/05 02:59:25;;;;;;;4.07;3.78;;;;;;;;;;5052936;28;20172;-52
2021/05/05 03:01:55;;;;;;;5.07;4.53;;;;;;;;;;5052750;28;20615;-52
2021/05/05 03:04:21;;;;;;;3.25;3.00;;;;;;;;;;5052779;28;20430;-52
2021/05/05 03:06:47;;;;;;;7.65;3.90;;;;;;;;;;5052667;28;20190;-52
2021/05/05 03:09:13;;;;;;;5.23;4.00;;;;;;;;;;5052514;28;20249;-51
2021/05/05 03:11:39;;;;;;;4.50;3.47;;;;;;;;;;5052763;28;20445;-52
2021/05/05 03:14:05;;;;;;;4.10;3.80;;;;;;;;;;5052880;28;20670;-52
2021/05/05 03:16:31;;;;;;;4.07;3.73;;;;;;;;;;5052495;28;20406;-52
2021/05/05 03:18:57;;;;;;;4.88;4.05;;;;;;;;;;5052448;28;20406;-50
2021/05/05 03:21:23;;;;;;;3.80;3.50;;;;;;;;;;5052478;28;20177;-52
2021/05/05 03:23:49;;;;;;;3.78;3.42;;;;;;;;;;5052438;28;20402;-52
2021/05/05 03:26:15;;;;;;;3.93;3.53;;;;;;;;;;5052482;28;20225;-52
2021/05/05 03:28:41;;;;;;;5.13;4.30;;;;;;;;;;5052310;28;20839;-51
2021/05/05 03:31:07;;;;;;;5.30;3.63;;;;;;;;;;5052284;28;20831;-50
2021/05/05 03:33:33;;;;;;;15.27;4.30;;;;;;;;;;5052456;28;20278;-52
2021/05/05 03:35:59;;;;;;;5.17;4.77;;;;;;;;;;5052290;28;20491;-52
2021/05/05 03:38:25;;;;;;;8.75;4.85;;;;;;;;;;5052034;28;20413;-50
2021/05/05 03:40:51;;;;;;;5.10;4.70;;;;;;;;;;5052042;28;20171;-50
2021/05/05 03:43:18;;;;;;;5.60;5.20;;;;;;;;;;5052155;28;20700;-51
2021/05/05 03:45:44;;;;;;;6.15;5.60;;;;;;;;;;5052141;28;20556;-52
2021/05/05 03:48:10;;;;;;;6.40;5.80;;;;;;;;;;5052139;28;20601;-51
2021/05/05 03:50:37;;;;;;;8.87;7.23;;;;;;;;;;5052006;28;20405;-52
2021/05/05 03:53:03;;;;;;;6.97;6.38;;;;;;;;;;5052060;28;20430;-52
2021/05/05 03:55:29;;;;;;;8.18;7.18;;;;;;;;;;5051029;28;20214;-52
2021/05/05 03:57:55;;;;;;;11.27;6.97;;;;;;;;;;5052160;28;20213;-52
2021/05/05 04:00:21;;;;;;;9.20;7.50;;;;;;;;;;5052042;28;20170;-51
2021/05/05 04:02:47;;;;;;;8.00;6.60;;;;;;;;;;5051959;28;20402;-53
2021/05/05 04:05:14;;;;;;;9.43;7.17;;;;;;;;;;5051921;28;20523;-53
2021/05/05 04:07:40;;;;;;;12.02;7.18;;;;;;;;;;5051608;28;20435;-53
2021/05/05 04:10:08;;;;;;;10.87;7.60;;;;;;;;;;5051621;28;20202;-53
2021/05/05 04:12:34;;;;;;;6.90;6.30;;;;;;;;;;5051620;28;20456;-53
2021/05/05 04:15:00;;;;;;;6.60;5.95;;;;;;;;;;5051051;28;20638;-53
2021/05/05 04:17:26;;;;;;;7.10;6.40;;;;;;;;;;5051514;28;20168;-53
2021/05/05 04:19:53;;;;;;;9.10;6.47;;;;;;;;;;5051334;28;20217;-52
2021/05/05 04:22:19;;;;;;;7.00;6.00;;;;;;;;;;5051200;28;20887;-52
2021/05/05 04:24:45;;;;;;;7.70;6.30;;;;;;;;;;5051301;28;20524;-53
2021/05/05 04:27:12;;;;;;;8.23;6.40;;;;;;;;;;5051264;28;20848;-51
2021/05/05 04:29:38;;;;;;;6.95;5.65;;;;;;;;;;5051114;28;20634;-53
2021/05/05 04:32:04;;;;;;;7.53;6.83;;;;;;;;;;5051361;28;20167;-52
2021/05/05 04:34:30;;;;;;;7.90;7.10;;;;;;;;;;5051557;28;20422;-52
2021/05/05 04:36:56;;;;;;;7.10;6.00;;;;;;;;;;5051082;28;20207;-50
2021/05/05 04:39:22;;;;;;;8.33;6.90;;;;;;;;;;5050700;28;20214;-52
2021/05/05 04:41:48;;;;;;;6.90;6.30;;;;;;;;;;5051091;28;20481;-53
2021/05/05 04:44:14;;;;;;;7.40;6.70;;;;;;;;;;5050660;28;20528;-52
2021/05/05 04:46:40;;;;;;;9.80;8.70;;;;;;;;;;5050993;28;20861;-52
2021/05/05 04:49:06;;;;;;;9.35;8.13;;;;;;;;;;5050628;28;20171;-53
2021/05/05 04:51:33;;;;;;;13.10;7.63;;;;;;;;;;5050860;28;20179;-53
2021/05/05 04:53:59;;;;;;;9.45;8.48;;;;;;;;;;5050827;28;20930;-52
2021/05/05 04:56:25;;;;;;;11.93;10.10;;;;;;;;;;5050890;28;20167;-52
2021/05/05 04:58:51;;;;;;;13.03;10.20;;;;;;;;;;5050498;28;20916;-52
2021/05/05 05:01:17;;;;;;;13.07;9.33;;;;;;;;;;5050964;28;20463;-52
2021/05/05 05:03:43;;;;;;;13.87;9.67;;;;;;;;;;5050533;28;20404;-51
2021/05/05 05:06:09;;;;;;;11.50;10.03;;;;;;;;;;5050613;28;20460;-52
2021/05/05 05:08:35;;;;;;;11.43;10.25;;;;;;;;;;5050683;28;20492;-52
2021/05/05 05:11:01;;;;;;;11.50;9.23;;;;;;;;;;5050554;28;20253;-52
2021/05/05 05:13:27;;;;;;;11.07;9.90;;;;;;;;;;5050799;28;20397;-52
2021/05/05 05:15:53;;;;;;;13.63;10.77;;;;;;;;;;5050543;28;20448;-52
2021/05/05 05:18:19;;;;;;;13.10;10.73;;;;;;;;;;5050489;28;20398;-53
2021/05/05 05:20:45;;;;;;;14.83;11.00;;;;;;;;;;5050718;28;20393;-51
2021/05/05 05:23:11;;;;;;;14.60;10.40;;;;;;;;;;5050687;28;20401;-53
2021/05/05 05:25:37;;;;;;;13.60;10.50;;;;;;;;;;5050340;28;20456;-53
2021/05/05 05:28:02;;;;;;;18.80;10.90;;;;;;;;;;5053369;28;20402;-52
2021/05/05 05:30:29;;;;;;;12.50;10.30;;;;;;;;;;5054462;28;20402;-53
2021/05/05 05:32:54;;;;;;;12.80;10.25;;;;;;;;;;5054713;28;20398;-52
2021/05/05 05:35:21;;;;;;;12.17;10.50;;;;;;;;;;5054551;28;20189;-52
2021/05/05 05:37:47;;;;;;;17.67;10.27;;;;;;;;;;5054802;28;20396;-52
2021/05/05 05:40:14;;;;;;;14.65;11.13;;;;;;;;;;5054360;28;20527;-50
2021/05/05 05:42:40;;;;;;;15.20;11.23;;;;;;;;;;5054667;28;20240;-52
2021/05/05 05:45:07;;;;;;;12.50;11.00;;;;;;;;;;5054573;28;20488;-52
2021/05/05 05:47:33;;;;;;;11.98;10.50;;;;;;;;;;5054533;28;20456;-52
2021/05/05 05:49:59;;;;;;;12.00;10.27;;;;;;;;;;5054230;28;20176;-51
2021/05/05 05:52:26;;;;;;;11.70;9.53;;;;;;;;;;5054714;28;20769;-52
2021/05/05 05:54:52;;;;;;;13.32;10.70;;;;;;;;;;5054562;28;20424;-52
2021/05/05 05:57:18;;;;;;;10.03;9.13;;;;;;;;;;5054548;28;20167;-52
2021/05/05 05:59:44;;;;;;;6.47;5.10;;;;;;;;;;5054093;28;20943;-52
2021/05/05 06:02:11;;;;;;;5.78;5.20;;;;;;;;;;5054169;28;20394;-52
2021/05/05 06:04:37;;;;;;;4.60;4.20;;;;;;;;;;5054217;28;20867;-51
2021/05/05 06:07:03;;;;;;;4.33;4.03;;;;;;;;;;5054048;28;20195;-53
2021/05/05 06:09:29;;;;;;;4.47;4.17;;;;;;;;;;5053592;28;20926;-53
2021/05/05 06:11:55;;;;;;;5.60;5.00;;;;;;;;;;5054057;28;20397;-52
2021/05/05 06:14:21;;;;;;;5.20;4.80;;;;;;;;;;5053747;28;20772;-51
2021/05/05 06:16:47;;;;;;;8.10;5.00;;;;;;;;;;5053732;28;20416;-53
2021/05/05 06:19:12;;;;;;;5.30;4.90;;;;;;;;;;5053533;28;20408;-51
2021/05/05 06:21:39;;;;;;;5.67;4.70;;;;;;;;;;5053585;28;20400;-52
2021/05/05 06:24:05;;;;;;;6.35;5.63;;;;;;;;;;5053682;28;20425;-51
2021/05/05 06:26:31;;;;;;;8.93;5.68;;;;;;;;;;5053443;28;20206;-52
2021/05/05 06:28:57;;;;;;;8.43;6.40;;;;;;;;;;5053448;28;20167;-52
2021/05/05 06:31:23;;;;;;;6.63;6.13;;;;;;;;;;5053383;28;20401;-51
2021/05/05 06:33:49;;;;;;;7.35;6.63;;;;;;;;;;5053679;28;20393;-51
2021/05/05 06:36:15;;;;;;;10.77;7.73;;;;;;;;;;5053349;28;20572;-53
2021/05/05 06:38:41;;;;;;;8.80;8.10;;;;;;;;;;5052735;28;20463;-52
2021/05/05 06:41:07;;;;;;;9.17;8.27;;;;;;;;;;5053183;28;20437;-51
2021/05/05 06:43:33;;;;;;;16.42;10.05;;;;;;;;;;5053388;28;20428;-51
2021/05/05 06:45:59;;;;;;;14.70;10.52;;;;;;;;;;5053046;28;20744;-52
2021/05/05 06:48:25;;;;;;;11.90;10.70;;;;;;;;;;5053003;28;20634;-52
2021/05/05 06:50:52;;;;;;;13.57;11.10;;;;;;;;;;5052761;28;20204;-53
2021/05/05 06:53:17;;;;;;;13.00;10.90;;;;;;;;;;5052623;28;20262;-51
2021/05/05 06:55:44;;;;;;;14.63;12.10;;;;;;;;;;5052624;28;20697;-51
2021/05/05 06:58:10;;;;;;;11.80;10.60;;;;;;;;;;5052661;28;20583;-52
2021/05/05 07:00:36;;;;;;;13.30;11.02;;;;;;;;;;5052157;28;20618;-51
2021/05/05 07:03:02;;;;;;;12.50;11.20;;;;;;;;;;5052636;28;20174;-51
2021/05/05 07:05:28;;;;;;;14.73;9.17;;;;;;;;;;5052122;28;20417;-51
2021/05/05 07:07:54;;;;;;;15.83;10.00;;;;;;;;;;5052407;28;20382;-50
2021/05/05 07:10:20;;;;;;;11.57;10.40;;;;;;;;;;5052057;28;20393;-52
2021/05/05 07:12:46;;;;;;;9.25;8.35;;;;;;;;;;5052242;28;20393;-52
2021/05/05 07:15:12;;;;;;;9.02;7.60;;;;;;;;;;5052645;28;20264;-50
2021/05/05 07:17:38;;;;;;;8.02;6.63;;;;;;;;;;5052677;28;20881;-52
2021/05/05 07:20:05;;;;;;;7.47;6.50;;;;;;;;;;5052489;28;20654;-52
2021/05/05 07:22:31;;;;;;;6.50;6.00;;;;;;;;;;5052484;28;20634;-50
2021/05/05 07:24:57;;;;;;;6.20;4.90;;;;;;;;;;5052474;28;20540;-51
2021/05/05 07:27:23;;;;;;;5.53;5.00;;;;;;;;;;5052347;28;20201;-51
2021/05/05 07:29:49;;;;;;;6.40;5.38;;;;;;;;;;5052202;28;20850;-51
2021/05/05 07:32:16;;;;;;;6.45;5.85;;;;;;;;;;5052347;28;20166;-51
2021/05/05 07:34:42;;;;;;;7.28;5.80;;;;;;;;;;5052363;28;20191;-52
2021/05/05 07:37:14;;;;;;;7.22;6.53;;;;;;;;;;5052380;28;20167;-53
2021/05/05 07:47:25;;;;;;;8.20;6.97;;;;;;;;;;5106237;22;20237;-61
2021/05/05 07:49:52;;;;;;;7.65;6.88;;;;;;;;;;5091515;28;20169;-60
2021/05/05 07:52:19;;;;;;;9.00;7.50;;;;;;;;;;5092180;28;20241;-60
2021/05/05 07:54:45;;;;;;;8.10;7.30;;;;;;;;;;5092248;28;20162;-61
2021/05/05 07:57:11;;;;;;;8.57;7.72;;;;;;;;;;5092084;28;20185;-60
2021/05/05 07:59:38;;;;;;;9.10;8.13;;;;;;;;;;5091821;28;20651;-60
2021/05/05 08:02:04;;;;;;;9.00;7.63;;;;;;;;;;5091938;28;20401;-60
2021/05/05 08:04:31;;;;;;;8.27;7.60;;;;;;;;;;5092079;28;20498;-60
2021/05/05 08:06:57;;;;;;;8.20;7.37;;;;;;;;;;5091745;28;20479;-61
2021/05/05 08:09:24;;;;;;;7.53;6.83;;;;;;;;;;5091718;28;20427;-60
2021/05/05 08:11:50;;;;;;;6.50;6.00;;;;;;;;;;5092026;28;20418;-61
2021/05/05 08:14:17;;;;;;;7.07;6.50;;;;;;;;;;5091745;28;20921;-60
2021/05/05 08:16:43;;;;;;;8.47;7.67;;;;;;;;;;5092063;28;20418;-60
2021/05/05 08:19:09;;;;;;;7.60;6.90;;;;;;;;;;5091702;28;20568;-60
2021/05/05 08:21:35;;;;;;;10.43;7.30;;;;;;;;;;5091797;28;20778;-60
2021/05/05 08:24:01;;;;;;;7.90;7.10;;;;;;;;;;5091515;28;20406;-60
2021/05/05 08:26:29;;;;;;;8.70;6.50;;;;;;;;;;5091534;28;20969;-60
2021/05/05 08:28:56;;;;;;;7.63;7.00;;;;;;;;;;5091106;28;20398;-60
2021/05/05 08:31:22;;;;;;;6.87;6.17;;;;;;;;;;5091896;28;20400;-60
2021/05/05 08:33:48;;;;;;;5.97;5.47;;;;;;;;;;5091455;28;20423;-61
2021/05/05 08:36:14;;;;;;;7.20;6.00;;;;;;;;;;5090178;28;20437;-60
2021/05/05 08:38:43;;;;;;;6.00;5.40;;;;;;;;;;5091111;28;20521;-61
2021/05/05 08:41:10;;;;;;;5.50;4.97;;;;;;;;;;5091466;28;20441;-61
2021/05/05 08:43:37;;;;;;;5.83;5.03;;;;;;;;;;5091090;28;20580;-61
2021/05/05 08:46:06;;;;;;;3.57;3.27;;;;;;;;;;5091110;28;20466;-61
2021/05/05 08:48:33;;;;;;;8.10;3.13;;;;;;;;;;5091086;28;20429;-61
2021/05/05 08:51:00;;;;;;;3.20;2.53;;;;;;;;;;5091048;28;20410;-61
2021/05/05 08:53:26;;;;;;;2.20;2.00;;;;;;;;;;5091000;28;20457;-61
2021/05/05 08:55:52;;;;;;;2.53;2.33;;;;;;;;;;5091045;28;20423;-61
2021/05/05 08:58:18;;;;;;;2.40;2.03;;;;;;;;;;5091008;28;20412;-61
2021/05/05 09:00:44;;;;;;;2.00;1.90;;;;;;;;;;5090413;28;20702;-61
2021/05/05 09:03:10;;;;;;;5.97;3.33;;;;;;;;;;5090353;28;20427;-61
2021/05/05 09:05:53;;;;;;;2.80;2.60;;;;;;;;;;5090839;28;20455;-61
2021/05/05 09:08:21;;;;;;;3.23;2.93;;;;;;;;;;5090774;28;20383;-61
2021/05/05 09:10:57;;;;;;;3.80;3.23;;;;;;;;;;5090596;28;20405;-61
2021/05/05 09:13:43;;;;;;;4.50;3.00;;;;;;;;;;5093250;28;20417;-61
2021/05/05 09:16:13;;;;;;;3.27;2.97;;;;;;;;;;5089430;28;20434;-61
2021/05/05 09:18:51;;;;;;;4.87;2.97;;;;;;;;;;5090596;28;20406;-61
2021/05/05 09:21:26;;;;;;;5.10;3.23;;;;;;;;;;5090756;28;20498;-61
2021/05/05 09:23:53;;;;;;;3.40;3.10;;;;;;;;;;5090779;28;20391;-61
2021/05/05 09:26:39;;;;;;;3.67;3.30;;;;;;;;;;5090443;28;20449;-61
2021/05/05 09:29:08;;;;;;;5.80;3.03;;;;;;;;;;5090421;28;20414;-61
2021/05/05 09:31:35;;;;;;;5.27;4.00;;;;;;;;;;5091184;28;20448;-61
2021/05/05 09:34:01;;;;;;;4.43;4.10;;;;;;;;;;5090817;28;20401;-61
2021/05/05 09:36:28;;;;;;;4.80;4.40;;;;;;;;;;5090655;28;20427;-61
2021/05/05 09:38:54;;;;;;;8.40;4.10;;;;;;;;;;5090363;28;20450;-61
2021/05/05 09:41:25;;;;;;;7.23;4.73;;;;;;;;;;5090486;28;20461;-61
2021/05/05 09:43:52;;;;;;;5.87;4.23;;;;;;;;;;5090485;28;20399;-61
2021/05/05 09:46:45;;;;;;;7.70;4.60;;;;;;;;;;5090111;28;20459;-61
2021/05/05 09:49:20;;;;;;;6.53;4.10;;;;;;;;;;5090379;28;20409;-61
2021/05/05 09:51:50;;;;;;;9.60;4.60;;;;;;;;;;5090399;28;20808;-61
2021/05/05 09:54:23;;;;;;;7.67;4.97;;;;;;;;;;5090521;28;20395;-61
2021/05/05 09:56:49;;;;;;;6.00;4.43;;;;;;;;;;5085661;28;20412;-61
2021/05/05 09:59:15;;;;;;;11.67;4.90;;;;;;;;;;5069686;28;20459;-61
2021/05/05 10:01:41;;;;;;;6.10;5.50;;;;;;;;;;5070073;28;20461;-61
2021/05/05 10:04:07;;;;;;;6.70;4.50;;;;;;;;;;5070030;28;20894;-61
2021/05/05 10:06:37;;;;;;;5.20;4.33;;;;;;;;;;5070061;28;20448;-61
2021/05/05 10:09:04;;;;;;;9.33;4.30;;;;;;;;;;5069713;28;20461;-61
2021/05/05 10:11:31;;;;;;;9.33;4.40;;;;;;;;;;5070090;28;20404;-61
2021/05/05 10:14:00;;;;;;;6.93;3.70;;;;;;;;;;5071957;28;20394;-61
2021/05/05 10:16:26;;;;;;;6.63;4.60;;;;;;;;;;5073752;28;20416;-61
2021/05/05 10:18:52;;;;;;;10.87;4.70;;;;;;;;;;5073398;28;20967;-61
2021/05/05 10:21:23;;;;;;;5.00;4.60;;;;;;;;;;5073467;28;20492;-61
2021/05/05 10:23:49;;;;;;;8.03;4.57;;;;;;;;;;5073532;28;20404;-61
2021/05/05 10:26:15;;;;;;;3.83;3.53;;;;;;;;;;5073463;28;20452;-61
2021/05/05 10:28:42;;;;;;;5.80;3.50;;;;;;;;;;5073339;28;20911;-61
2021/05/05 10:31:27;;;;;;;5.10;3.40;;;;;;;;;;5073471;28;20404;-61
2021/05/05 10:33:56;;;;;;;3.80;3.00;;;;;;;;;;5073405;28;20798;-61
2021/05/05 10:36:28;;;;;;;6.53;3.20;;;;;;;;;;5073473;28;20429;-61
2021/05/05 10:38:53;;;;;;;5.27;2.80;;;;;;;;;;5073217;28;20891;-61
2021/05/05 10:41:21;;;;;;;12.43;3.33;;;;;;;;;;5073179;28;20405;-61
2021/05/05 10:43:56;;;;;;;4.93;2.90;;;;;;;;;;5073280;28;20930;-61
2021/05/05 10:46:31;;;;;;;3.50;2.60;;;;;;;;;;5072778;28;20434;-61
2021/05/05 10:49:15;;;;;;;5.93;2.60;;;;;;;;;;5072963;28;20431;-61
2021/05/05 10:51:44;;;;;;;6.33;3.20;;;;;;;;;;5073051;28;20778;-61
2021/05/05 10:54:20;;;;;;;3.83;2.97;;;;;;;;;;5073250;28;20404;-61
2021/05/05 10:57:05;;;;;;;4.97;3.50;;;;;;;;;;5072929;28;20430;-61
2021/05/05 10:59:51;;;;;;;6.40;2.80;;;;;;;;;;5072860;28;20918;-61
2021/05/05 11:02:36;;;;;;;4.13;2.90;;;;;;;;;;5072814;28;20428;-61
2021/05/05 11:05:09;;;;;;;3.37;2.27;;;;;;;;;;5072728;28;20407;-61
2021/05/05 11:07:55;;;;;;;5.77;2.37;;;;;;;;;;5072820;28;20459;-61
2021/05/05 11:10:39;;;;;;;2.43;2.23;;;;;;;;;;5072674;28;20487;-61
2021/05/05 11:13:04;;;;;;;3.73;2.30;;;;;;;;;;5072650;28;20433;-61
2021/05/05 11:15:45;;;;;;;3.83;2.77;;;;;;;;;;5072464;28;20417;-61
2021/05/05 11:20:56;;;;;;;3.47;2.60;;;;;;;;;;5072437;28;20397;-61
2021/05/05 11:23:34;;;;;;;4.30;3.17;;;;;;;;;;5072598;28;20375;-61
2021/05/05 11:26:19;;;;;;;4.43;3.30;;;;;;;;;;5071460;28;20554;-61
2021/05/05 11:29:11;;;;;;;3.10;2.80;;;;;;;;;;5072332;28;20898;-61
2021/05/05 11:31:46;;;;;;;5.00;3.07;;;;;;;;;;5072644;28;20808;-60
2021/05/05 11:34:22;;;;;;;4.70;3.10;;;;;;;;;;5072237;28;20421;-60
2021/05/05 11:37:02;;;;;;;5.33;3.30;;;;;;;;;;5072147;28;20416;-60
2021/05/05 11:39:29;;;;;;;5.30;3.30;;;;;;;;;;5072025;28;20392;-60
2021/05/05 11:42:03;;;;;;;6.37;4.03;;;;;;;;;;5072123;28;20473;-60
2021/05/05 11:44:39;;;;;;;11.90;4.50;;;;;;;;;;5072126;28;20400;-60
2021/05/05 11:47:16;;;;;;;11.53;5.30;;;;;;;;;;5072107;28;20459;-60
2021/05/05 11:49:44;;;;;;;6.20;5.03;;;;;;;;;;5071846;28;20942;-60
2021/05/05 11:52:20;;;;;;;5.57;5.07;;;;;;;;;;5071876;28;20436;-60
2021/05/05 11:54:48;;;;;;;4.27;3.87;;;;;;;;;;5071857;28;20783;-60
2021/05/05 11:57:14;;;;;;;9.40;5.40;;;;;;;;;;5071467;28;20422;-60
2021/05/05 11:59:40;;;;;;;3.93;3.73;;;;;;;;;;5071808;28;20411;-60
2021/05/05 12:02:06;;;;;;;3.80;3.50;;;;;;;;;;5071762;28;20402;-60
2021/05/05 12:04:39;;;;;;;3.10;2.80;;;;;;;;;;5071820;28;20403;-60
2021/05/05 12:07:07;;;;;;;2.80;2.60;;;;;;;;;;5071549;28;21155;-60
2021/05/05 12:09:34;;;;;;;2.30;2.13;;;;;;;;;;5071149;28;20411;-60
2021/05/05 12:12:10;;;;;;;3.50;2.40;;;;;;;;;;5071530;28;20402;-60
2021/05/05 12:14:36;;;;;;;2.40;2.20;;;;;;;;;;5071526;28;20398;-60
2021/05/05 12:17:14;;;;;;;2.23;2.13;;;;;;;;;;5071451;28;20953;-60
2021/05/05 12:19:40;;;;;;;2.30;2.10;;;;;;;;;;5070958;28;20408;-60
2021/05/05 12:22:13;;;;;;;8.13;2.50;;;;;;;;;;5071144;28;20407;-60
2021/05/05 12:24:39;;;;;;;3.30;2.10;;;;;;;;;;5071264;28;20427;-60
2021/05/05 12:27:08;;;;;;;4.13;2.00;;;;;;;;;;5071160;28;20902;-60
2021/05/05 12:29:34;;;;;;;2.60;2.00;;;;;;;;;;5071043;28;20397;-60
2021/05/05 12:32:01;;;;;;;4.70;2.23;;;;;;;;;;5071261;28;20487;-60
2021/05/05 12:34:27;;;;;;;2.80;2.37;;;;;;;;;;5071147;28;20914;-60
2021/05/05 12:36:55;;;;;;;3.47;1.97;;;;;;;;;;5070271;28;20428;-60
2021/05/05 12:39:22;;;;;;;3.40;2.40;;;;;;;;;;5070815;28;20407;-60
2021/05/05 12:41:51;;;;;;;3.10;1.87;;;;;;;;;;5071074;28;20490;-61
2021/05/05 12:44:18;;;;;;;11.00;2.80;;;;;;;;;;5070130;28;20408;-61
2021/05/05 12:46:55;;;;;;;4.47;3.50;;;;;;;;;;5068955;28;20878;-61
2021/05/05 12:49:37;;;;;;;5.30;2.80;;;;;;;;;;5070447;28;20403;-61
2021/05/05 12:52:04;;;;;;;6.83;2.50;;;;;;;;;;5070799;28;20899;-60
2021/05/05 12:54:32;;;;;;;3.73;2.83;;;;;;;;;;5071132;28;20402;-60
2021/05/05 12:57:01;;;;;;;4.13;2.87;;;;;;;;;;5071072;28;20424;-60
2021/05/05 12:59:33;;;;;;;3.13;2.50;;;;;;;;;;5071102;28;20768;-60
2021/05/05 13:02:10;;;;;;;7.67;3.23;;;;;;;;;;5070724;28;20466;-60
2021/05/05 13:04:37;;;;;;;8.47;3.20;;;;;;;;;;5070937;28;20891;-60
2021/05/05 13:07:03;;;;;;;2.00;1.90;;;;;;;;;;5070566;28;20997;-60
2021/05/05 13:09:30;;;;;;;2.17;1.60;;;;;;;;;;5070338;28;20426;-60
2021/05/05 13:12:27;;;;;;;5.43;2.00;;;;;;;;;;5070765;28;20833;-60
2021/05/05 13:15:09;;;;;;;4.60;1.80;;;;;;;;;;5070387;28;20960;-60
2021/05/05 13:17:58;;;;;;;3.35;2.22;;;;;;;;;;5070740;28;20405;-60
2021/05/05 13:20:36;;;;;;;4.25;2.17;;;;;;;;;;5070557;28;20162;-60
2021/05/05 13:34:10;;;;;;;4.05;3.65;;;;;;;;;;5070544;28;20227;-60
2021/05/05 13:36:56;;;;;;;3.90;3.45;;;;;;;;;;5070539;28;20209;-59
2021/05/05 13:39:22;;;;;;;7.67;3.83;;;;;;;;;;5068720;28;20203;-59
2021/05/05 13:41:57;;;;;;;4.87;3.83;;;;;;;;;;5070479;28;20871;-60
2021/05/05 13:44:28;;;;;;;4.05;3.75;;;;;;;;;;5070310;28;20406;-59
2021/05/05 13:47:04;;;;;;;5.60;3.63;;;;;;;;;;5064249;22;20224;-52
2021/05/05 13:49:38;;;;;;;4.83;3.30;;;;;;;;;;5033307;28;20404;-52
2021/05/05 13:52:05;;;;;;;5.83;3.53;;;;;;;;;;5034442;28;20901;-52
2021/05/05 13:54:31;;;;;;;4.63;3.37;;;;;;;;;;5034330;28;20401;-52
2021/05/05 13:57:01;;;;;;;6.73;3.67;;;;;;;;;;5032749;28;20418;-52
2021/05/05 13:59:28;;;;;;;8.57;3.23;;;;;;;;;;5014078;28;20410;-50
2021/05/05 14:01:53;;;;;;;4.07;3.30;;;;;;;;;;5014242;28;20402;-52
2021/05/05 14:04:19;;;;;;;6.03;3.50;;;;;;;;;;5014510;28;20467;-52
2021/05/05 14:06:48;;;;;;;5.07;3.83;;;;;;;;;;5014130;28;20598;-53
2021/05/05 14:09:14;;;;;;;6.73;3.50;;;;;;;;;;5024556;28;20541;-53
2021/05/05 14:11:40;;;;;;;5.03;3.27;;;;;;;;;;5032636;28;20414;-53
2021/05/05 14:14:06;;;;;;;7.87;2.90;;;;;;;;;;5032387;28;21024;-54
2021/05/05 14:16:32;;;;;;;2.97;2.67;;;;;;;;;;5033160;28;20516;-53
2021/05/05 14:18:58;;;;;;;4.40;3.30;;;;;;;;;;5033709;28;20779;-52
2021/05/05 14:21:24;;;;;;;5.53;3.10;;;;;;;;;;5033549;28;20996;-52
2021/05/05 14:23:52;;;;;;;9.00;4.40;;;;;;;;;;5034196;28;20406;-53
2021/05/05 14:26:18;;;;;;;8.03;3.30;;;;;;;;;;5033943;28;20798;-53
2021/05/05 14:28:44;;;;;;;8.77;4.30;;;;;;;;;;5033435;28;20851;-53
2021/05/05 14:31:10;;;;;;;5.50;3.80;;;;;;;;;;5033693;28;20426;-53
2021/05/05 14:33:37;;;;;;;4.57;4.20;;;;;;;;;;5033532;28;20394;-51
2021/05/05 14:36:03;;;;;;;5.57;4.93;;;;;;;;;;5033959;28;20426;-52
2021/05/05 14:38:33;;;;;;;6.80;4.10;;;;;;;;;;5033505;28;20489;-52
2021/05/05 14:41:02;;;;;;;4.87;4.17;;;;;;;;;;5033337;28;20406;-52
2021/05/05 14:48:48;;;;;;;9.97;4.63;;;;;;;;;;5033102;28;20499;-52
2021/05/05 14:51:14;;;;;;;7.13;4.37;;;;;;;;;;5033398;28;20402;-52
2021/05/05 14:53:40;;;;;;;7.20;3.40;;;;;;;;;;5033083;28;20445;-51
2021/05/05 14:56:06;;;;;;;4.50;3.73;;;;;;;;;;5033115;28;20508;-52
2021/05/05 14:58:35;;;;;;;5.20;4.43;;;;;;;;;;5032874;28;20421;-53
2021/05/05 15:01:01;;;;;;;6.43;3.90;;;;;;;;;;5032752;28;20410;-54
2021/05/05 15:03:29;;;;;;;3.80;3.47;;;;;;;;;;5033106;28;20434;-53
2021/05/05 15:05:57;;;;;;;6.00;3.83;;;;;;;;;;5032818;28;20422;-53
2021/05/05 15:08:28;;;;;;;5.30;3.17;;;;;;;;;;5033151;28;20789;-54
2021/05/05 15:19:21;;;;;;;8.87;3.87;;;;;;;;;;5032898;28;20406;-52
2021/05/05 15:35:28;;;;;;;4.83;3.10;;;;;;;;;;5032553;28;20419;-54